createdAt,value
2023-03-20T00:02:28.225Z,98109.25
2023-03-20T00:04:56.995Z,98107.63
2023-03-20T00:07:26.680Z,98115.44
2023-03-20T00:09:58.409Z,98112.94
2023-03-20T00:12:27.491Z,98115.56
2023-03-20T00:14:56.451Z,98118.91
2023-03-20T00:17:25.745Z,98116.56
2023-03-20T00:19:55.122Z,98115.06
2023-03-20T00:22:24.214Z,98110.25
2023-03-20T00:24:53.126Z,98117.81
2023-03-20T00:27:22.384Z,98117.69
2023-03-20T00:29:51.243Z,98111.41
2023-03-20T00:32:20.556Z,98117.59
2023-03-20T00:34:49.936Z,98116.75
2023-03-20T00:37:18.856Z,98116.97
2023-03-20T00:39:47.705Z,98113.47
2023-03-20T00:42:26.849Z,98113.25
2023-03-20T00:44:57.229Z,98120.16
2023-03-20T00:47:26.681Z,98115.84
2023-03-20T00:49:56.865Z,98115.97
2023-03-20T00:52:26.658Z,98123.00
2023-03-20T00:54:55.524Z,98120.41
2023-03-20T00:57:32.030Z,98125.34
2023-03-20T01:00:10.279Z,98119.41
2023-03-20T01:02:44.133Z,98118.56
2023-03-20T01:05:18.237Z,98119.34
2023-03-20T01:07:51.880Z,98122.16
2023-03-20T01:10:27.746Z,98123.00
2023-03-20T01:13:04.616Z,98127.22
2023-03-20T01:15:40.495Z,98131.94
2023-03-20T01:18:17.457Z,98125.56
2023-03-20T01:20:47.211Z,98127.53
2023-03-20T01:23:16.931Z,98127.34
2023-03-20T01:25:47.151Z,98136.03
2023-03-20T01:28:23.187Z,98139.34
2023-03-20T01:30:53.682Z,98138.09
2023-03-20T01:33:27.735Z,98157.91
2023-03-20T01:35:58.752Z,98149.28
2023-03-20T01:38:29.859Z,98147.38
2023-03-20T01:41:14.186Z,98152.28
2023-03-20T01:43:45.566Z,98161.09
2023-03-20T01:46:20.935Z,98161.94
2023-03-20T01:48:52.091Z,98166.06
2023-03-20T01:51:29.541Z,98172.00
2023-03-20T01:54:31.169Z,98173.44
2023-03-20T01:57:13.118Z,98173.38
2023-03-20T02:00:05.442Z,98185.22
2023-03-20T02:02:46.760Z,98183.78
2023-03-20T02:05:34.330Z,98199.31
2023-03-20T02:08:25.256Z,98196.19
2023-03-20T02:10:56.430Z,98198.97
2023-03-20T02:13:32.622Z,98197.25
2023-03-20T02:16:04.733Z,98196.66
2023-03-20T02:18:53.239Z,98207.25
2023-03-20T02:21:43.724Z,98208.00
2023-03-20T02:24:30.461Z,98209.34
2023-03-20T02:27:10.384Z,98207.41
2023-03-20T02:29:55.018Z,98205.53
2023-03-20T02:32:40.754Z,98213.94
2023-03-20T02:35:29.050Z,98223.41
2023-03-20T02:38:38.853Z,98225.25
2023-03-20T02:41:23.686Z,98227.34
2023-03-20T02:44:20.322Z,98227.84
2023-03-20T02:47:05.793Z,98230.00
2023-03-20T02:50:05.664Z,98239.34
2023-03-20T02:52:37.882Z,98241.22
2023-03-20T02:55:28.953Z,98235.50
2023-03-20T02:58:21.673Z,98242.16
2023-03-20T03:01:00.280Z,98244.03
2023-03-20T03:03:53.014Z,98242.38
2023-03-20T03:06:30.830Z,98248.00
2023-03-20T03:09:10.814Z,98254.44
2023-03-20T03:11:45.644Z,98255.25
2023-03-20T03:14:33.888Z,98250.00
2023-03-20T03:17:08.196Z,98249.44
2023-03-20T03:19:41.236Z,98256.34
2023-03-20T03:22:13.402Z,98259.03
2023-03-20T03:24:52.069Z,98259.91
2023-03-20T03:27:30.397Z,98265.56
2023-03-20T03:30:12.260Z,98264.84
2023-03-20T03:32:52.782Z,98266.13
2023-03-20T03:35:25.909Z,98268.50
2023-03-20T03:38:22.450Z,98274.94
2023-03-20T03:41:02.816Z,98274.00
2023-03-20T03:43:46.879Z,98284.22
2023-03-20T03:46:27.682Z,98284.13
2023-03-20T03:48:59.630Z,98289.56
2023-03-20T03:51:33.015Z,98295.16
2023-03-20T03:54:20.070Z,98293.69
2023-03-20T03:57:11.501Z,98294.88
2023-03-20T03:59:47.193Z,98287.84
2023-03-20T04:02:19.055Z,98287.66
2023-03-20T04:04:53.192Z,98289.50
2023-03-20T04:07:23.108Z,98301.22
2023-03-20T04:09:52.854Z,98300.94
2023-03-20T04:12:45.640Z,98314.53
2023-03-20T04:15:16.947Z,98305.50
2023-03-20T04:17:47.373Z,98308.09
2023-03-20T04:20:18.689Z,98305.53
2023-03-20T04:22:51.824Z,98314.00
2023-03-20T04:25:27.134Z,98310.22
2023-03-20T04:27:57.910Z,98305.66
2023-03-20T04:31:06.475Z,98299.19
2023-03-20T04:33:54.447Z,98300.31
2023-03-20T04:36:32.503Z,98303.56
2023-03-20T04:39:02.129Z,98307.63
2023-03-20T04:41:31.229Z,98308.16
2023-03-20T04:44:00.451Z,98293.69
2023-03-20T04:46:30.887Z,98302.59
2023-03-20T04:49:01.958Z,98291.09
2023-03-20T04:51:32.608Z,98293.59
2023-03-20T04:54:02.217Z,98298.09
2023-03-20T04:56:31.817Z,98291.47
2023-03-20T04:59:21.574Z,98290.44
2023-03-20T05:01:53.005Z,98284.34
2023-03-20T05:04:24.542Z,98287.94
2023-03-20T05:06:54.036Z,98291.47
2023-03-20T05:09:26.234Z,98281.53
2023-03-20T05:11:56.822Z,98286.91
2023-03-20T05:14:58.568Z,98283.66
2023-03-20T05:17:46.298Z,98286.50
2023-03-20T05:20:33.583Z,98286.06
2023-03-20T05:23:25.835Z,98298.63
2023-03-20T05:26:08.539Z,98296.25
2023-03-20T05:28:57.614Z,98287.78
2023-03-20T05:31:45.185Z,98293.50
2023-03-20T05:34:33.700Z,98288.78
2023-03-20T05:37:21.268Z,98288.19
2023-03-20T05:40:18.377Z,98291.59
2023-03-20T05:43:00.224Z,98292.38
2023-03-20T05:45:44.929Z,98288.88
2023-03-20T05:48:33.468Z,98284.88
2023-03-20T05:51:20.902Z,98292.97
2023-03-20T05:54:09.386Z,98292.84
2023-03-20T05:56:59.027Z,98296.22
2023-03-20T05:59:54.931Z,98300.31
2023-03-20T06:02:50.449Z,98297.47
2023-03-20T06:05:57.932Z,98304.97
2023-03-20T06:08:27.463Z,98302.66
2023-03-20T06:10:57.115Z,98300.03
2023-03-20T06:13:27.403Z,98300.03
2023-03-20T06:15:57.345Z,98291.72
2023-03-20T06:18:27.114Z,98295.84
2023-03-20T06:20:59.060Z,98288.13
2023-03-20T06:23:31.187Z,98282.66
2023-03-20T06:26:03.265Z,98280.44
2023-03-20T06:28:44.291Z,98286.09
2023-03-20T06:31:13.660Z,98290.13
2023-03-20T06:33:42.518Z,98300.50
2023-03-20T06:36:11.741Z,98295.81
2023-03-20T06:38:40.793Z,98292.88
2023-03-20T06:41:24.553Z,98280.63
2023-03-20T06:44:04.769Z,98278.34
2023-03-20T06:46:53.940Z,98267.69
2023-03-20T06:49:23.195Z,98264.50
2023-03-20T06:51:52.153Z,98251.59
2023-03-20T06:54:28.806Z,98245.97
2023-03-20T06:56:58.833Z,98248.56
2023-03-20T06:59:28.173Z,98254.63
2023-03-20T07:01:59.207Z,98252.97
2023-03-20T07:04:29.204Z,98261.91
2023-03-20T07:07:02.085Z,98262.25
2023-03-20T07:09:31.335Z,98250.66
2023-03-20T07:12:01.011Z,98243.22
2023-03-20T07:14:32.365Z,98250.81
2023-03-20T07:17:09.998Z,98239.16
2023-03-20T07:19:39.654Z,98235.09
2023-03-20T07:22:16.438Z,98223.28
2023-03-20T07:24:47.304Z,98216.34
2023-03-20T07:27:17.429Z,98228.34
2023-03-20T07:29:47.329Z,98228.19
2023-03-20T07:32:19.807Z,98245.22
2023-03-20T07:34:51.943Z,98236.88
2023-03-20T07:37:22.313Z,98225.63
2023-03-20T07:40:02.171Z,98225.56
2023-03-20T07:42:34.018Z,98239.50
2023-03-20T07:45:15.317Z,98238.28
2023-03-20T07:47:49.978Z,98235.22
2023-03-20T07:50:19.233Z,98229.47
2023-03-20T07:52:55.016Z,98211.81
2023-03-20T07:55:24.214Z,98198.38
2023-03-20T07:57:53.126Z,98201.56
2023-03-20T08:00:22.401Z,98195.13
2023-03-20T08:02:51.681Z,98200.50
2023-03-20T08:05:20.655Z,98197.72
2023-03-20T08:07:49.565Z,98204.34
2023-03-20T08:10:18.876Z,98191.38
2023-03-20T08:12:47.830Z,98185.09
2023-03-20T08:15:17.443Z,98167.19
2023-03-20T08:17:47.176Z,98163.22
2023-03-20T08:20:18.012Z,98157.66
2023-03-20T08:22:47.715Z,98171.59
2023-03-20T08:25:16.659Z,98181.00
2023-03-20T08:27:46.228Z,98187.31
2023-03-20T08:30:15.674Z,98191.13
2023-03-20T08:32:44.673Z,98178.97
2023-03-20T08:35:29.721Z,98167.41
2023-03-20T08:38:02.106Z,98154.09
2023-03-20T08:40:31.667Z,98149.13
2023-03-20T08:43:00.699Z,98143.31
2023-03-20T08:45:29.515Z,98138.75
2023-03-20T08:47:58.435Z,98121.47
2023-03-20T08:50:27.913Z,98111.84
2023-03-20T08:52:57.233Z,98102.63
2023-03-20T08:55:25.983Z,98112.25
2023-03-20T08:57:55.528Z,98107.09
2023-03-20T09:00:25.389Z,98104.00
2023-03-20T09:03:01.774Z,98087.31
2023-03-20T09:05:33.055Z,98086.91
2023-03-20T09:08:03.153Z,98085.28
2023-03-20T09:10:32.095Z,98083.09
2023-03-20T09:13:02.828Z,98071.78
2023-03-20T09:15:35.474Z,98067.34
2023-03-20T09:18:04.904Z,98053.50
2023-03-20T09:20:33.784Z,98039.88
2023-03-20T09:23:02.865Z,98042.75
2023-03-20T09:25:31.887Z,98030.75
2023-03-20T09:28:00.918Z,98028.84
2023-03-20T09:30:29.650Z,98017.28
2023-03-20T09:32:58.673Z,98001.97
2023-03-20T09:35:27.421Z,97994.78
2023-03-20T09:37:57.545Z,97997.31
2023-03-20T09:40:29.678Z,97996.72
2023-03-20T09:43:20.384Z,97979.09
2023-03-20T09:45:55.024Z,97966.84
2023-03-20T09:48:42.651Z,97955.81
2023-03-20T09:51:26.456Z,97958.84
2023-03-20T09:54:01.476Z,97958.53
2023-03-20T09:56:32.554Z,97958.53
2023-03-20T09:59:06.318Z,97960.38
2023-03-20T10:02:00.281Z,97955.34
2023-03-20T10:04:32.316Z,97950.50
2023-03-20T10:07:16.758Z,97964.38
2023-03-20T10:09:47.157Z,97971.13
2023-03-20T10:12:28.491Z,97967.78
2023-03-20T10:15:19.081Z,97973.44
2023-03-20T10:18:15.467Z,97968.69
2023-03-20T10:20:56.176Z,97961.66
2023-03-20T10:23:34.775Z,97955.75
2023-03-20T10:26:20.540Z,97938.25
2023-03-20T10:28:53.472Z,97935.22
2023-03-20T10:31:46.783Z,97925.22
2023-03-20T10:34:52.692Z,97932.50
2023-03-20T10:37:33.238Z,97929.69
2023-03-20T10:40:22.674Z,97928.34
2023-03-20T10:43:01.023Z,97924.97
2023-03-20T10:46:11.562Z,97930.28
2023-03-20T10:49:04.859Z,97923.25
2023-03-20T10:51:56.274Z,97920.00
2023-03-20T10:54:49.125Z,97909.56
2023-03-20T10:57:27.291Z,97909.34
2023-03-20T10:59:58.702Z,97914.88
2023-03-20T11:02:31.281Z,97913.53
2023-03-20T11:05:23.939Z,97919.50
2023-03-20T11:08:02.818Z,97915.75
2023-03-20T11:10:37.573Z,97909.81
2023-03-20T11:13:18.104Z,97912.44
2023-03-20T11:15:47.943Z,97916.00
2023-03-20T11:18:17.514Z,97915.88
2023-03-20T11:20:52.965Z,97914.59
2023-03-20T11:23:36.413Z,97913.34
2023-03-20T11:26:07.660Z,97916.22
2023-03-20T11:28:42.775Z,97905.34
2023-03-20T11:31:14.783Z,97910.53
2023-03-20T11:33:52.729Z,97903.56
2023-03-20T11:36:28.347Z,97904.88
2023-03-20T11:39:15.195Z,97893.38
2023-03-20T11:41:58.594Z,97896.19
2023-03-20T11:44:36.820Z,97898.28
2023-03-20T11:47:18.486Z,97895.13
2023-03-20T11:49:51.364Z,97899.09
2023-03-20T11:52:30.625Z,97899.81
2023-03-20T11:55:01.832Z,97898.53
2023-03-20T11:57:46.818Z,97895.78
2023-03-20T12:00:25.555Z,97903.78
2023-03-20T12:02:54.648Z,97905.69
2023-03-20T12:05:37.685Z,97907.75
2023-03-20T12:08:28.703Z,97910.97
2023-03-20T12:11:07.683Z,97912.53
2023-03-20T12:13:42.364Z,97910.28
2023-03-20T12:16:18.880Z,97918.91
2023-03-20T12:18:58.719Z,97918.59
2023-03-20T12:21:49.532Z,97923.72
2023-03-20T12:24:27.167Z,97921.63
2023-03-20T12:27:16.436Z,97927.56
2023-03-20T12:30:02.157Z,97925.88
2023-03-20T12:32:44.303Z,97930.44
2023-03-20T12:35:28.154Z,97937.44
2023-03-20T12:37:57.948Z,97935.81
2023-03-20T12:40:44.662Z,97937.63
2023-03-20T12:43:19.729Z,97935.34
2023-03-20T12:46:31.612Z,97932.81
2023-03-20T12:49:11.395Z,97938.28
2023-03-20T12:51:58.422Z,97946.22
2023-03-20T12:54:36.316Z,97946.41
2023-03-20T12:57:44.451Z,97944.47
2023-03-20T13:00:31.818Z,97945.56
2023-03-20T13:03:04.003Z,97943.81
2023-03-20T13:05:37.878Z,97957.16
2023-03-20T13:08:22.156Z,97958.66
2023-03-20T13:11:15.838Z,97965.22
2023-03-20T13:13:52.658Z,97971.81
2023-03-20T13:17:17.712Z,97967.69
2023-03-20T13:20:35.613Z,97978.38
2023-03-20T13:23:21.017Z,97988.31
2023-03-20T13:26:05.795Z,97993.00
2023-03-20T13:28:56.189Z,97995.25
2023-03-20T13:31:34.938Z,97999.78
2023-03-20T13:34:14.568Z,98004.06
2023-03-20T13:37:22.278Z,98007.09
2023-03-20T13:40:15.876Z,98015.25
2023-03-20T13:42:52.165Z,98021.72
2023-03-20T13:45:40.517Z,98019.72
2023-03-20T13:48:21.992Z,98028.97
2023-03-20T13:50:55.788Z,98034.50
2023-03-20T13:53:31.650Z,98042.19
2023-03-20T13:56:27.279Z,98040.31
2023-03-20T13:59:19.316Z,98043.72
2023-03-20T14:01:55.958Z,98050.91
2023-03-20T14:04:26.109Z,98069.03
2023-03-20T14:06:57.778Z,98079.31
2023-03-20T14:09:38.474Z,98080.00
2023-03-20T14:12:13.874Z,98091.84
2023-03-20T14:14:48.480Z,98096.81
2023-03-20T14:17:23.320Z,98105.16
2023-03-20T14:19:53.965Z,98108.41
2023-03-20T14:22:45.504Z,98126.72
2023-03-20T14:25:21.853Z,98129.56
2023-03-20T14:28:00.747Z,98136.28
2023-03-20T14:30:32.870Z,98149.91
2023-03-20T14:33:09.073Z,98167.34
2023-03-20T14:35:45.714Z,98185.44
2023-03-20T14:38:57.120Z,98187.94
2023-03-20T14:41:57.893Z,98187.00
2023-03-20T14:44:47.653Z,98191.25
2023-03-20T14:47:39.876Z,98190.94
2023-03-20T14:50:11.787Z,98198.09
2023-03-20T14:53:09.688Z,98197.31
2023-03-20T14:55:52.336Z,98200.97
2023-03-20T14:58:39.388Z,98207.59
2023-03-20T15:01:25.350Z,98202.16
2023-03-20T15:04:08.391Z,98203.16
2023-03-20T15:06:49.900Z,98205.72
2023-03-20T15:09:21.888Z,98212.19
2023-03-20T15:11:51.126Z,98215.03
2023-03-20T15:14:46.472Z,98203.44
2023-03-20T15:17:28.092Z,98206.19
2023-03-20T15:20:07.999Z,98203.56
2023-03-20T15:22:48.600Z,98199.06
2023-03-20T15:25:20.288Z,98197.56
2023-03-20T15:27:50.507Z,98193.41
2023-03-20T15:30:24.387Z,98199.44
2023-03-20T15:32:56.874Z,98196.38
2023-03-20T15:35:28.490Z,98191.69
2023-03-20T15:37:59.829Z,98192.00
2023-03-20T15:40:47.406Z,98186.69
2023-03-20T15:43:25.089Z,98186.94
2023-03-20T15:46:14.240Z,98196.72
2023-03-20T15:48:49.795Z,98196.84
2023-03-20T15:51:21.377Z,98193.59
2023-03-20T15:53:50.731Z,98202.19
2023-03-20T15:56:23.976Z,98205.59
2023-03-20T15:58:54.896Z,98206.09
2023-03-20T16:01:26.388Z,98208.56
2023-03-20T16:04:00.507Z,98207.88
2023-03-20T16:06:30.345Z,98207.88
2023-03-20T16:09:09.081Z,98202.81
2023-03-20T16:11:41.468Z,98203.16
2023-03-20T16:14:36.807Z,98212.78
2023-03-20T16:17:06.895Z,98215.16
2023-03-20T16:19:35.824Z,98204.75
2023-03-20T16:22:11.972Z,98212.75
2023-03-20T16:24:42.536Z,98213.00
2023-03-20T16:27:12.196Z,98209.41
2023-03-20T16:29:44.642Z,98205.84
2023-03-20T16:32:35.255Z,98210.66
2023-03-20T16:35:09.858Z,98212.28
2023-03-20T16:38:00.567Z,98216.63
2023-03-20T16:40:29.452Z,98219.59
2023-03-20T16:42:58.199Z,98218.78
2023-03-20T16:45:32.298Z,98217.00
2023-03-20T16:48:13.228Z,98202.81
2023-03-20T16:50:45.574Z,98186.13
2023-03-20T16:53:22.677Z,98178.97
2023-03-20T16:55:53.397Z,98178.88
2023-03-20T16:58:30.038Z,98186.13
2023-03-20T17:01:07.884Z,98189.78
2023-03-20T17:03:46.818Z,98194.63
2023-03-20T17:06:22.580Z,98202.47
2023-03-20T17:09:00.830Z,98206.94
2023-03-20T17:11:37.040Z,98208.63
2023-03-20T17:14:06.061Z,98204.53
2023-03-20T17:16:35.125Z,98195.41
2023-03-20T17:19:14.520Z,98197.13
2023-03-20T17:21:44.529Z,98200.00
2023-03-20T17:24:14.983Z,98197.25
2023-03-20T17:26:46.874Z,98209.84
2023-03-20T17:29:16.423Z,98201.34
2023-03-20T17:31:45.276Z,98214.72
2023-03-20T17:34:15.773Z,98217.22
2023-03-20T17:36:45.649Z,98222.44
2023-03-20T17:39:22.548Z,98223.09
2023-03-20T17:41:51.704Z,98230.38
2023-03-20T17:44:20.596Z,98223.53
2023-03-20T17:46:58.294Z,98220.13
2023-03-20T17:49:28.257Z,98221.31
2023-03-20T17:51:57.653Z,98224.06
2023-03-20T17:54:27.207Z,98220.72
2023-03-20T17:56:55.995Z,98205.91
2023-03-20T17:59:29.580Z,98213.00
2023-03-20T18:01:58.797Z,98214.09
2023-03-20T18:04:27.986Z,98206.28
2023-03-20T18:06:56.922Z,98214.41
2023-03-20T18:09:26.817Z,98214.16
2023-03-20T18:11:55.863Z,98209.88
2023-03-20T18:14:24.591Z,98222.88
2023-03-20T18:16:53.660Z,98220.47
2023-03-20T18:19:29.329Z,98211.00
2023-03-20T18:21:59.103Z,98202.22
2023-03-20T18:24:28.616Z,98210.91
2023-03-20T18:26:57.898Z,98216.47
2023-03-20T18:29:26.866Z,98226.84
2023-03-20T18:31:55.888Z,98224.38
2023-03-20T18:34:24.608Z,98229.47
2023-03-20T18:36:53.835Z,98227.69
2023-03-20T18:39:25.421Z,98235.38
2023-03-20T18:41:54.637Z,98234.88
2023-03-20T18:44:23.487Z,98244.38
2023-03-20T18:46:52.427Z,98246.13
2023-03-20T18:49:21.240Z,98251.53
2023-03-20T18:51:50.705Z,98247.06
2023-03-20T18:54:19.689Z,98257.38
2023-03-20T18:56:50.758Z,98252.09
2023-03-20T18:59:20.413Z,98262.56
2023-03-20T19:01:50.160Z,98256.63
2023-03-20T19:04:19.374Z,98258.44
2023-03-20T19:06:49.505Z,98257.59
2023-03-20T19:09:19.317Z,98269.13
2023-03-20T19:11:48.206Z,98272.44
2023-03-20T19:14:17.237Z,98274.66
2023-03-20T19:16:47.213Z,98268.63
2023-03-20T19:19:17.464Z,98274.78
2023-03-20T19:21:46.428Z,98283.53
2023-03-20T19:24:15.215Z,98280.84
2023-03-20T19:26:44.350Z,98289.53
2023-03-20T19:29:14.748Z,98279.16
2023-03-20T19:31:43.694Z,98274.22
2023-03-20T19:34:36.761Z,98280.25
2023-03-20T19:37:01.949Z,98271.75
2023-03-20T19:39:31.178Z,98282.72
2023-03-20T19:42:15.333Z,98280.34
2023-03-20T19:44:49.580Z,98279.69
2023-03-20T19:47:18.387Z,98272.66
2023-03-20T19:49:47.337Z,98270.16
2023-03-20T19:52:34.656Z,98290.53
2023-03-20T19:55:03.970Z,98294.28
2023-03-20T19:57:33.005Z,98294.19
2023-03-20T20:00:48.688Z,98304.53
2023-03-20T20:02:51.579Z,98307.88
2023-03-20T20:05:33.693Z,98313.16
2023-03-20T20:08:30.910Z,98298.69
2023-03-20T20:10:55.659Z,98300.66
2023-03-20T20:13:27.790Z,98306.50
2023-03-20T20:15:58.883Z,98308.22
2023-03-20T20:18:29.538Z,98310.72
2023-03-20T20:21:59.896Z,98308.41
2023-03-20T20:23:47.990Z,98306.81
2023-03-20T20:26:16.854Z,98306.00
2023-03-20T20:28:46.106Z,98309.63
2023-03-20T20:31:14.787Z,98307.06
2023-03-20T20:34:00.032Z,98312.09
2023-03-20T20:37:26.048Z,98308.66
2023-03-20T20:39:22.123Z,98300.16
2023-03-20T20:41:51.653Z,98297.38
2023-03-20T20:44:20.414Z,98291.50
2023-03-20T20:46:49.217Z,98295.91
2023-03-20T20:49:19.769Z,98290.66
2023-03-20T20:51:49.968Z,98285.63
2023-03-20T20:54:18.803Z,98283.03
2023-03-20T20:56:47.875Z,98287.53
2023-03-20T20:59:16.719Z,98288.31
2023-03-20T21:01:45.937Z,98284.97
2023-03-20T21:04:14.731Z,98283.56
2023-03-20T21:07:08.207Z,98277.13
2023-03-20T21:09:33.279Z,98275.44
2023-03-20T21:12:02.293Z,98272.22
2023-03-20T21:14:31.575Z,98274.69
2023-03-20T21:17:03.338Z,98272.44
2023-03-20T21:19:36.353Z,98263.78
2023-03-20T21:22:06.454Z,98267.22
2023-03-20T21:24:35.945Z,98261.13
2023-03-20T21:27:07.743Z,98256.84
2023-03-20T21:29:36.699Z,98260.34
2023-03-20T21:32:06.626Z,98261.78
2023-03-20T21:34:35.705Z,98263.88
2023-03-20T21:38:08.714Z,98257.84
2023-03-20T21:39:54.189Z,98252.00
2023-03-20T21:42:22.999Z,98245.75
2023-03-20T21:45:44.817Z,98256.22
2023-03-20T21:50:52.928Z,98241.53
2023-03-20T22:02:07.127Z,98226.94
2023-03-20T22:07:58.290Z,98215.84
2023-03-20T22:14:05.957Z,98218.78
2023-03-20T22:16:33.742Z,98228.88
2023-03-20T22:22:05.351Z,98225.63
2023-03-20T22:30:43.538Z,98234.88
2023-03-20T22:33:31.170Z,98234.16
2023-03-20T22:36:21.497Z,98236.66
2023-03-20T22:46:57.584Z,98243.03
2023-03-20T22:49:26.368Z,98243.88
2023-03-20T22:52:15.323Z,98239.59
2023-03-20T22:54:45.259Z,98236.19
2023-03-20T22:57:14.050Z,98242.56
2023-03-20T22:59:43.124Z,98238.06
2023-03-20T23:02:11.896Z,98241.47
2023-03-20T23:04:40.803Z,98243.34
2023-03-20T23:07:09.560Z,98235.53
2023-03-20T23:09:38.753Z,98227.03
2023-03-20T23:12:07.630Z,98229.31
2023-03-20T23:14:45.498Z,98228.66
2023-03-20T23:17:15.469Z,98220.19
2023-03-20T23:19:49.102Z,98230.16
2023-03-20T23:22:21.453Z,98227.53
2023-03-20T23:24:50.214Z,98224.94
2023-03-20T23:27:21.289Z,98232.72
2023-03-20T23:29:50.387Z,98222.00
2023-03-20T23:32:19.127Z,98227.44
2023-03-20T23:34:48.069Z,98230.84
2023-03-20T23:37:16.854Z,98236.97
2023-03-20T23:39:45.767Z,98226.56
2023-03-20T23:42:29.680Z,98227.59
2023-03-20T23:45:07.159Z,98222.25
2023-03-20T23:47:45.090Z,98227.69
2023-03-20T23:50:26.358Z,98234.03
2023-03-20T23:53:09.424Z,98227.13
2023-03-20T23:55:44.294Z,98221.09
2023-03-20T23:58:14.573Z,98223.94
